sensor_id;sensor_type;location;lat;lon;timestamp;P1;P2;P0
65680;PMS5003;61747;54.966;73.394;2022-11-24T00:01:11;0.00;0.00;0.00
65680;PMS5003;61747;54.966;73.394;2022-11-24T00:03:40;0.00;0.00;0.00
65680;PMS5003;61747;54.966;73.394;2022-11-24T00:06:06;0.00;0.00;0.00
65680;PMS5003;61747;54.966;73.394;2022-11-24T00:08:36;0.00;0.00;0.00
65680;PMS5003;61747;54.966;73.394;2022-11-24T00:11:09;0.00;0.00;0.00
65680;PMS5003;61747;54.966;73.394;2022-11-24T00:13:35;0.00;0.00;0.00
65680;PMS5003;61747;54.966;73.394;2022-11-24T00:16:17;0.00;0.00;0.00
65680;PMS5003;61747;54.966;73.394;2022-11-24T00:18:44;0.00;0.00;0.00
65680;PMS5003;61747;54.966;73.394;2022-11-24T00:21:15;0.00;0.00;0.00
65680;PMS5003;61747;54.966;73.394;2022-11-24T00:23:42;0.00;0.00;0.00
65680;PMS5003;61747;54.966;73.394;2022-11-24T00:26:18;0.00;0.00;0.00
65680;PMS5003;61747;54.966;73.394;2022-11-24T00:28:45;0.00;0.00;0.00
65680;PMS5003;61747;54.966;73.394;2022-11-24T00:33:40;0.00;0.00;0.00
65680;PMS5003;61747;54.966;73.394;2022-11-24T00:36:11;0.00;0.00;0.00
65680;PMS5003;61747;54.966;73.394;2022-11-24T00:38:36;0.00;0.00;0.00
65680;PMS5003;61747;54.966;73.394;2022-11-24T00:41:02;0.00;0.00;0.00
65680;PMS5003;61747;54.966;73.394;2022-11-24T00:43:38;0.00;0.00;0.00
65680;PMS5003;61747;54.966;73.394;2022-11-24T00:46:04;0.00;0.00;0.00
65680;PMS5003;61747;54.966;73.394;2022-11-24T00:48:30;0.00;0.00;0.00
65680;PMS5003;61747;54.966;73.394;2022-11-24T00:51:02;0.00;0.00;0.00
65680;PMS5003;61747;54.966;73.394;2022-11-24T00:53:28;0.00;0.00;0.00
65680;PMS5003;61747;54.966;73.394;2022-11-24T00:55:58;1.00;0.00;0.00
65680;PMS5003;61747;54.966;73.394;2022-11-24T00:58:34;0.75;0.00;0.00
65680;PMS5003;61747;54.966;73.394;2022-11-24T01:01:13;0.00;0.00;0.00
65680;PMS5003;61747;54.966;73.394;2022-11-24T01:03:39;0.00;0.00;0.00
65680;PMS5003;61747;54.966;73.394;2022-11-24T01:06:14;0.00;0.00;0.00
65680;PMS5003;61747;54.966;73.394;2022-11-24T01:08:41;0.00;0.00;0.00
65680;PMS5003;61747;54.966;73.394;2022-11-24T01:13:40;0.00;0.00;0.00
65680;PMS5003;61747;54.966;73.394;2022-11-24T01:16:12;0.00;0.00;0.00
65680;PMS5003;61747;54.966;73.394;2022-11-24T01:18:38;0.00;0.00;0.00
65680;PMS5003;61747;54.966;73.394;2022-11-24T01:21:14;0.00;0.00;0.00
65680;PMS5003;61747;54.966;73.394;2022-11-24T01:23:40;0.00;0.00;0.00
65680;PMS5003;61747;54.966;73.394;2022-11-24T01:26:11;0.00;0.00;0.00
65680;PMS5003;61747;54.966;73.394;2022-11-24T01:28:51;0.00;0.00;0.00
65680;PMS5003;61747;54.966;73.394;2022-11-24T01:31:17;0.00;0.00;0.00
65680;PMS5003;61747;54.966;73.394;2022-11-24T01:33:43;0.00;0.00;0.00
65680;PMS5003;61747;54.966;73.394;2022-11-24T01:36:12;0.00;0.00;0.00
65680;PMS5003;61747;54.966;73.394;2022-11-24T01:38:38;0.00;0.00;0.00
65680;PMS5003;61747;54.966;73.394;2022-11-24T01:43:40;0.00;0.00;0.00
65680;PMS5003;61747;54.966;73.394;2022-11-24T01:49:12;0.00;0.00;0.00
65680;PMS5003;61747;54.966;73.394;2022-11-24T01:54:39;0.00;0.00;0.00
65680;PMS5003;61747;54.966;73.394;2022-11-24T01:59:47;0.00;0.00;0.00
65680;PMS5003;61747;54.966;73.394;2022-11-24T02:02:29;2.25;1.25;0.00
65680;PMS5003;61747;54.966;73.394;2022-11-24T02:04:55;0.00;0.00;0.00
65680;PMS5003;61747;54.966;73.394;2022-11-24T02:07:23;1.50;0.00;0.00
65680;PMS5003;61747;54.966;73.394;2022-11-24T02:12:25;0.25;0.00;0.00
65680;PMS5003;61747;54.966;73.394;2022-11-24T02:14:51;0.00;0.00;0.00
65680;PMS5003;61747;54.966;73.394;2022-11-24T02:17:27;0.00;0.00;0.00
65680;PMS5003;61747;54.966;73.394;2022-11-24T02:27:59;0.00;0.00;0.00
65680;PMS5003;61747;54.966;73.394;2022-11-24T02:30:30;0.50;0.00;0.00
65680;PMS5003;61747;54.966;73.394;2022-11-24T02:32:55;0.00;0.00;0.00
65680;PMS5003;61747;54.966;73.394;2022-11-24T02:35:22;8.00;5.75;1.75
65680;PMS5003;61747;54.966;73.394;2022-11-24T02:37:47;1.00;0.50;0.00
65680;PMS5003;61747;54.966;73.394;2022-11-24T02:40:14;0.00;0.00;0.00
65680;PMS5003;61747;54.966;73.394;2022-11-24T02:42:45;1.00;1.00;0.00
65680;PMS5003;61747;54.966;73.394;2022-11-24T02:45:11;1.00;0.25;0.00
65680;PMS5003;61747;54.966;73.394;2022-11-24T02:47:39;0.00;0.00;0.00
65680;PMS5003;61747;54.966;73.394;2022-11-24T02:50:05;0.00;0.00;0.00
65680;PMS5003;61747;54.966;73.394;2022-11-24T02:52:40;1.25;1.25;1.00
65680;PMS5003;61747;54.966;73.394;2022-11-24T02:55:06;1.25;1.25;0.25
65680;PMS5003;61747;54.966;73.394;2022-11-24T02:57:32;0.50;0.50;0.00
65680;PMS5003;61747;54.966;73.394;2022-11-24T02:59:57;1.00;0.25;0.00
65680;PMS5003;61747;54.966;73.394;2022-11-24T03:02:23;1.00;1.00;0.00
65680;PMS5003;61747;54.966;73.394;2022-11-24T03:04:49;1.00;1.00;0.25
65680;PMS5003;61747;54.966;73.394;2022-11-24T03:07:14;0.00;0.00;0.00
65680;PMS5003;61747;54.966;73.394;2022-11-24T03:09:50;1.50;0.50;0.00
65680;PMS5003;61747;54.966;73.394;2022-11-24T03:12:25;0.00;0.00;0.00
65680;PMS5003;61747;54.966;73.394;2022-11-24T03:14:52;0.00;0.00;0.00
65680;PMS5003;61747;54.966;73.394;2022-11-24T03:17:17;0.75;0.00;0.00
65680;PMS5003;61747;54.966;73.394;2022-11-24T03:19:43;0.00;0.00;0.00
65680;PMS5003;61747;54.966;73.394;2022-11-24T03:22:10;0.00;0.00;0.00
65680;PMS5003;61747;54.966;73.394;2022-11-24T03:24:36;0.00;0.00;0.00
65680;PMS5003;61747;54.966;73.394;2022-11-24T03:27:02;1.00;0.00;0.00
65680;PMS5003;61747;54.966;73.394;2022-11-24T03:29:28;1.00;0.50;0.00
65680;PMS5003;61747;54.966;73.394;2022-11-24T03:31:59;1.00;0.00;0.00
65680;PMS5003;61747;54.966;73.394;2022-11-24T03:34:26;1.75;1.00;0.00
65680;PMS5003;61747;54.966;73.394;2022-11-24T03:36:51;0.00;0.00;0.00
65680;PMS5003;61747;54.966;73.394;2022-11-24T03:39:17;3.75;2.25;1.25
65680;PMS5003;61747;54.966;73.394;2022-11-24T03:41:43;4.00;3.00;2.00
65680;PMS5003;61747;54.966;73.394;2022-11-24T03:44:08;4.50;4.00;1.75
65680;PMS5003;61747;54.966;73.394;2022-11-24T03:46:40;7.00;5.50;2.00
65680;PMS5003;61747;54.966;73.394;2022-11-24T03:49:05;8.25;7.25;3.00
65680;PMS5003;61747;54.966;73.394;2022-11-24T03:51:35;8.00;6.00;3.00
65680;PMS5003;61747;54.966;73.394;2022-11-24T03:54:01;8.00;7.00;3.00
65680;PMS5003;61747;54.966;73.394;2022-11-24T03:56:36;7.00;5.00;1.25
65680;PMS5003;61747;54.966;73.394;2022-11-24T03:59:02;4.25;3.00;1.00
65680;PMS5003;61747;54.966;73.394;2022-11-24T04:01:28;2.00;2.00;1.00
65680;PMS5003;61747;54.966;73.394;2022-11-24T04:04:03;1.50;1.00;0.50
65680;PMS5003;61747;54.966;73.394;2022-11-24T04:06:29;0.00;0.00;0.00
65680;PMS5003;61747;54.966;73.394;2022-11-24T04:09:05;0.25;0.00;0.00
65680;PMS5003;61747;54.966;73.394;2022-11-24T04:11:31;6.75;5.00;3.00
65680;PMS5003;61747;54.966;73.394;2022-11-24T04:14:15;3.75;3.00;1.00
65680;PMS5003;61747;54.966;73.394;2022-11-24T04:16:42;3.25;2.25;0.50
65680;PMS5003;61747;54.966;73.394;2022-11-24T04:19:13;2.50;2.00;1.00
65680;PMS5003;61747;54.966;73.394;2022-11-24T04:21:42;4.00;4.00;3.50
65680;PMS5003;61747;54.966;73.394;2022-11-24T04:24:13;3.00;2.50;1.00
65680;PMS5003;61747;54.966;73.394;2022-11-24T04:26:49;4.00;3.50;2.00
65680;PMS5003;61747;54.966;73.394;2022-11-24T04:29:15;3.25;3.00;2.00
65680;PMS5003;61747;54.966;73.394;2022-11-24T04:31:41;6.75;6.75;4.00
65680;PMS5003;61747;54.966;73.394;2022-11-24T04:34:13;8.75;7.25;3.75
65680;PMS5003;61747;54.966;73.394;2022-11-24T04:36:43;5.00;4.25;3.00
65680;PMS5003;61747;54.966;73.394;2022-11-24T04:39:14;4.50;4.00;2.75
65680;PMS5003;61747;54.966;73.394;2022-11-24T04:41:45;6.50;6.00;3.00
65680;PMS5003;61747;54.966;73.394;2022-11-24T04:44:21;9.00;6.00;2.50
65680;PMS5003;61747;54.966;73.394;2022-11-24T04:46:50;10.25;6.50;3.25
65680;PMS5003;61747;54.966;73.394;2022-11-24T04:49:17;10.00;6.00;3.00
65680;PMS5003;61747;54.966;73.394;2022-11-24T04:51:47;9.00;5.00;3.00
65680;PMS5003;61747;54.966;73.394;2022-11-24T04:54:17;7.00;3.25;2.00
65680;PMS5003;61747;54.966;73.394;2022-11-24T04:56:54;7.50;3.00;1.00
65680;PMS5003;61747;54.966;73.394;2022-11-24T04:59:29;6.75;4.75;2.75
65680;PMS5003;61747;54.966;73.394;2022-11-24T05:01:58;5.50;4.00;2.75
65680;PMS5003;61747;54.966;73.394;2022-11-24T05:04:24;6.25;6.00;3.00
65680;PMS5003;61747;54.966;73.394;2022-11-24T05:06:49;9.75;7.00;3.00
65680;PMS5003;61747;54.966;73.394;2022-11-24T05:09:20;8.50;5.25;3.00
65680;PMS5003;61747;54.966;73.394;2022-11-24T05:11:50;10.25;7.00;3.00
65680;PMS5003;61747;54.966;73.394;2022-11-24T05:14:26;5.50;4.25;2.75
65680;PMS5003;61747;54.966;73.394;2022-11-24T05:16:52;3.25;3.25;1.25
65680;PMS5003;61747;54.966;73.394;2022-11-24T05:19:23;4.00;3.00;2.00
65680;PMS5003;61747;54.966;73.394;2022-11-24T05:21:49;1.25;1.00;0.25
65680;PMS5003;61747;54.966;73.394;2022-11-24T05:24:26;0.00;0.00;0.00
65680;PMS5003;61747;54.966;73.394;2022-11-24T05:27:02;0.75;0.00;0.00
65680;PMS5003;61747;54.966;73.394;2022-11-24T05:29:27;0.00;0.00;0.00
65680;PMS5003;61747;54.966;73.394;2022-11-24T05:31:58;0.50;0.00;0.00
65680;PMS5003;61747;54.966;73.394;2022-11-24T05:34:24;0.00;0.00;0.00
65680;PMS5003;61747;54.966;73.394;2022-11-24T05:36:49;0.25;0.00;0.00
65680;PMS5003;61747;54.966;73.394;2022-11-24T05:39:32;2.00;1.00;1.00
65680;PMS5003;61747;54.966;73.394;2022-11-24T05:42:04;3.75;2.75;0.75
65680;PMS5003;61747;54.966;73.394;2022-11-24T05:44:49;0.00;0.00;0.00
65680;PMS5003;61747;54.966;73.394;2022-11-24T05:47:15;2.00;0.00;0.00
65680;PMS5003;61747;54.966;73.394;2022-11-24T05:49:41;3.00;0.00;0.00
65680;PMS5003;61747;54.966;73.394;2022-11-24T05:52:06;3.00;2.00;0.00
65680;PMS5003;61747;54.966;73.394;2022-11-24T05:54:32;1.00;1.00;0.00
65680;PMS5003;61747;54.966;73.394;2022-11-24T05:57:08;1.00;1.00;0.00
65680;PMS5003;61747;54.966;73.394;2022-11-24T05:59:34;3.00;3.00;1.00
65680;PMS5003;61747;54.966;73.394;2022-11-24T06:02:00;2.25;1.00;0.25
65680;PMS5003;61747;54.966;73.394;2022-11-24T06:04:25;3.00;2.50;1.00
65680;PMS5003;61747;54.966;73.394;2022-11-24T06:06:51;2.00;1.00;0.00
65680;PMS5003;61747;54.966;73.394;2022-11-24T06:09:17;1.00;1.00;0.00
65680;PMS5003;61747;54.966;73.394;2022-11-24T06:11:43;1.00;0.00;0.00
65680;PMS5003;61747;54.966;73.394;2022-11-24T06:14:08;0.00;0.00;0.00
65680;PMS5003;61747;54.966;73.394;2022-11-24T06:16:39;0.00;0.00;0.00
65680;PMS5003;61747;54.966;73.394;2022-11-24T06:19:05;0.00;0.00;0.00
65680;PMS5003;61747;54.966;73.394;2022-11-24T06:21:31;0.00;0.00;0.00
65680;PMS5003;61747;54.966;73.394;2022-11-24T06:23:56;0.00;0.00;0.00
65680;PMS5003;61747;54.966;73.394;2022-11-24T06:26:28;0.00;0.00;0.00
65680;PMS5003;61747;54.966;73.394;2022-11-24T06:28:59;0.00;0.00;0.00
65680;PMS5003;61747;54.966;73.394;2022-11-24T06:31:24;0.00;0.00;0.00
65680;PMS5003;61747;54.966;73.394;2022-11-24T06:33:50;1.00;0.75;0.00
65680;PMS5003;61747;54.966;73.394;2022-11-24T06:36:21;0.00;0.00;0.00
65680;PMS5003;61747;54.966;73.394;2022-11-24T06:38:47;0.50;0.50;0.00
65680;PMS5003;61747;54.966;73.394;2022-11-24T06:41:18;0.00;0.00;0.00
65680;PMS5003;61747;54.966;73.394;2022-11-24T06:43:49;0.00;0.00;0.00
65680;PMS5003;61747;54.966;73.394;2022-11-24T06:46:14;0.75;0.75;0.00
65680;PMS5003;61747;54.966;73.394;2022-11-24T06:48:40;0.00;0.00;0.00
65680;PMS5003;61747;54.966;73.394;2022-11-24T06:51:07;3.00;2.00;0.00
65680;PMS5003;61747;54.966;73.394;2022-11-24T06:53:34;1.50;1.50;0.25
65680;PMS5003;61747;54.966;73.394;2022-11-24T06:56:09;0.00;0.00;0.00
65680;PMS5003;61747;54.966;73.394;2022-11-24T06:58:46;0.75;0.00;0.00
65680;PMS5003;61747;54.966;73.394;2022-11-24T07:01:24;1.00;0.00;0.00
65680;PMS5003;61747;54.966;73.394;2022-11-24T07:03:55;1.00;0.00;0.00
65680;PMS5003;61747;54.966;73.394;2022-11-24T07:06:22;0.00;0.00;0.00
65680;PMS5003;61747;54.966;73.394;2022-11-24T07:08:48;0.00;0.00;0.00
65680;PMS5003;61747;54.966;73.394;2022-11-24T07:11:18;0.00;0.00;0.00
65680;PMS5003;61747;54.966;73.394;2022-11-24T07:13:47;0.00;0.00;0.00
65680;PMS5003;61747;54.966;73.394;2022-11-24T07:16:18;0.00;0.00;0.00
65680;PMS5003;61747;54.966;73.394;2022-11-24T07:18:44;0.00;0.00;0.00
65680;PMS5003;61747;54.966;73.394;2022-11-24T07:21:18;0.00;0.00;0.00
65680;PMS5003;61747;54.966;73.394;2022-11-24T07:23:48;0.00;0.00;0.00
65680;PMS5003;61747;54.966;73.394;2022-11-24T07:26:14;0.00;0.00;0.00
65680;PMS5003;61747;54.966;73.394;2022-11-24T07:28:40;0.00;0.00;0.00
65680;PMS5003;61747;54.966;73.394;2022-11-24T07:31:07;0.00;0.00;0.00
65680;PMS5003;61747;54.966;73.394;2022-11-24T07:33:33;0.00;0.00;0.00
65680;PMS5003;61747;54.966;73.394;2022-11-24T07:35:59;0.00;0.00;0.00
65680;PMS5003;61747;54.966;73.394;2022-11-24T07:38:25;0.00;0.00;0.00
65680;PMS5003;61747;54.966;73.394;2022-11-24T07:40:51;0.00;0.00;0.00
65680;PMS5003;61747;54.966;73.394;2022-11-24T07:43:16;0.00;0.00;0.00
65680;PMS5003;61747;54.966;73.394;2022-11-24T07:45:42;0.00;0.00;0.00
65680;PMS5003;61747;54.966;73.394;2022-11-24T07:48:08;0.00;0.00;0.00
65680;PMS5003;61747;54.966;73.394;2022-11-24T07:50:36;0.00;0.00;0.00
65680;PMS5003;61747;54.966;73.394;2022-11-24T07:53:02;0.00;0.00;0.00
65680;PMS5003;61747;54.966;73.394;2022-11-24T07:55:36;0.00;0.00;0.00
65680;PMS5003;61747;54.966;73.394;2022-11-24T07:58:02;0.00;0.00;0.00
65680;PMS5003;61747;54.966;73.394;2022-11-24T08:00:27;0.00;0.00;0.00
65680;PMS5003;61747;54.966;73.394;2022-11-24T08:02:54;0.50;0.00;0.00
65680;PMS5003;61747;54.966;73.394;2022-11-24T08:05:25;0.00;0.00;0.00
65680;PMS5003;61747;54.966;73.394;2022-11-24T08:07:50;0.00;0.00;0.00
65680;PMS5003;61747;54.966;73.394;2022-11-24T08:10:16;0.00;0.00;0.00
65680;PMS5003;61747;54.966;73.394;2022-11-24T08:12:42;0.00;0.00;0.00
65680;PMS5003;61747;54.966;73.394;2022-11-24T08:15:08;0.00;0.00;0.00
65680;PMS5003;61747;54.966;73.394;2022-11-24T08:17:34;0.00;0.00;0.00
65680;PMS5003;61747;54.966;73.394;2022-11-24T08:20:00;0.00;0.00;0.00
65680;PMS5003;61747;54.966;73.394;2022-11-24T08:22:28;0.00;0.00;0.00
65680;PMS5003;61747;54.966;73.394;2022-11-24T08:25:03;0.00;0.00;0.00
65680;PMS5003;61747;54.966;73.394;2022-11-24T08:27:29;0.00;0.00;0.00
65680;PMS5003;61747;54.966;73.394;2022-11-24T08:29:55;0.00;0.00;0.00
65680;PMS5003;61747;54.966;73.394;2022-11-24T08:32:21;0.50;0.50;0.00
65680;PMS5003;61747;54.966;73.394;2022-11-24T08:34:46;0.00;0.00;0.00
65680;PMS5003;61747;54.966;73.394;2022-11-24T08:37:17;0.75;0.00;0.00
65680;PMS5003;61747;54.966;73.394;2022-11-24T08:39:53;0.00;0.00;0.00
65680;PMS5003;61747;54.966;73.394;2022-11-24T08:42:19;1.00;0.00;0.00
65680;PMS5003;61747;54.966;73.394;2022-11-24T08:44:54;0.00;0.00;0.00
65680;PMS5003;61747;54.966;73.394;2022-11-24T08:47:30;0.00;0.00;0.00
65680;PMS5003;61747;54.966;73.394;2022-11-24T08:49:56;0.00;0.00;0.00
65680;PMS5003;61747;54.966;73.394;2022-11-24T08:52:21;0.00;0.00;0.00
65680;PMS5003;61747;54.966;73.394;2022-11-24T08:54:47;0.00;0.00;0.00
65680;PMS5003;61747;54.966;73.394;2022-11-24T08:57:13;0.00;0.00;0.00
65680;PMS5003;61747;54.966;73.394;2022-11-24T08:59:44;0.00;0.00;0.00
65680;PMS5003;61747;54.966;73.394;2022-11-24T09:02:10;0.00;0.00;0.00
65680;PMS5003;61747;54.966;73.394;2022-11-24T09:04:36;0.00;0.00;0.00
65680;PMS5003;61747;54.966;73.394;2022-11-24T09:07:02;0.00;0.00;0.00
65680;PMS5003;61747;54.966;73.394;2022-11-24T09:09:28;0.00;0.00;0.00
65680;PMS5003;61747;54.966;73.394;2022-11-24T09:11:54;0.00;0.00;0.00
65680;PMS5003;61747;54.966;73.394;2022-11-24T09:14:19;0.00;0.00;0.00
65680;PMS5003;61747;54.966;73.394;2022-11-24T09:16:55;0.00;0.00;0.00
65680;PMS5003;61747;54.966;73.394;2022-11-24T09:19:21;0.00;0.00;0.00
65680;PMS5003;61747;54.966;73.394;2022-11-24T09:21:51;0.00;0.00;0.00
65680;PMS5003;61747;54.966;73.394;2022-11-24T09:24:22;0.00;0.00;0.00
65680;PMS5003;61747;54.966;73.394;2022-11-24T09:26:48;0.00;0.00;0.00
65680;PMS5003;61747;54.966;73.394;2022-11-24T09:29:23;0.00;0.00;0.00
65680;PMS5003;61747;54.966;73.394;2022-11-24T09:31:59;0.00;0.00;0.00
65680;PMS5003;61747;54.966;73.394;2022-11-24T09:34:25;0.00;0.00;0.00
65680;PMS5003;61747;54.966;73.394;2022-11-24T09:36:50;0.00;0.00;0.00
65680;PMS5003;61747;54.966;73.394;2022-11-24T09:39:27;0.00;0.00;0.00
65680;PMS5003;61747;54.966;73.394;2022-11-24T09:46:58;0.00;0.00;0.00
65680;PMS5003;61747;54.966;73.394;2022-11-24T09:49:32;0.00;0.00;0.00
65680;PMS5003;61747;54.966;73.394;2022-11-24T09:52:01;0.00;0.00;0.00
65680;PMS5003;61747;54.966;73.394;2022-11-24T09:54:40;0.00;0.00;0.00
65680;PMS5003;61747;54.966;73.394;2022-11-24T09:57:10;0.00;0.00;0.00
65680;PMS5003;61747;54.966;73.394;2022-11-24T09:59:47;0.00;0.00;0.00
65680;PMS5003;61747;54.966;73.394;2022-11-24T10:02:12;0.00;0.00;0.00
65680;PMS5003;61747;54.966;73.394;2022-11-24T10:04:39;0.00;0.00;0.00
65680;PMS5003;61747;54.966;73.394;2022-11-24T10:07:21;0.00;0.00;0.00
65680;PMS5003;61747;54.966;73.394;2022-11-24T10:28:04;0.00;0.00;0.00
65680;PMS5003;61747;54.966;73.394;2022-11-24T10:30:34;0.00;0.00;0.00
65680;PMS5003;61747;54.966;73.394;2022-11-24T10:33:05;0.00;0.00;0.00
65680;PMS5003;61747;54.966;73.394;2022-11-24T10:35:36;0.00;0.00;0.00
65680;PMS5003;61747;54.966;73.394;2022-11-24T10:40:56;0.00;0.00;0.00
65680;PMS5003;61747;54.966;73.394;2022-11-24T10:43:24;0.00;0.00;0.00
65680;PMS5003;61747;54.966;73.394;2022-11-24T10:45:50;0.00;0.00;0.00
65680;PMS5003;61747;54.966;73.394;2022-11-24T10:48:17;0.00;0.00;0.00
65680;PMS5003;61747;54.966;73.394;2022-11-24T10:50:44;0.00;0.00;0.00
65680;PMS5003;61747;54.966;73.394;2022-11-24T10:53:17;0.00;0.00;0.00
65680;PMS5003;61747;54.966;73.394;2022-11-24T10:55:58;0.00;0.00;0.00
65680;PMS5003;61747;54.966;73.394;2022-11-24T10:58:25;0.00;0.00;0.00
65680;PMS5003;61747;54.966;73.394;2022-11-24T11:03:46;0.00;0.00;0.00
65680;PMS5003;61747;54.966;73.394;2022-11-24T11:06:14;0.00;0.00;0.00
65680;PMS5003;61747;54.966;73.394;2022-11-24T11:08:45;0.00;0.00;0.00
65680;PMS5003;61747;54.966;73.394;2022-11-24T11:11:21;0.00;0.00;0.00
65680;PMS5003;61747;54.966;73.394;2022-11-24T11:13:51;0.00;0.00;0.00
65680;PMS5003;61747;54.966;73.394;2022-11-24T11:18:48;0.00;0.00;0.00
65680;PMS5003;61747;54.966;73.394;2022-11-24T11:21:23;0.00;0.00;0.00
65680;PMS5003;61747;54.966;73.394;2022-11-24T11:24:03;0.00;0.00;0.00
65680;PMS5003;61747;54.966;73.394;2022-11-24T11:26:31;0.00;0.00;0.00
65680;PMS5003;61747;54.966;73.394;2022-11-24T11:31:27;0.00;0.00;0.00
65680;PMS5003;61747;54.966;73.394;2022-11-24T11:34:12;0.00;0.00;0.00
65680;PMS5003;61747;54.966;73.394;2022-11-24T11:36:40;1.00;1.00;0.00
65680;PMS5003;61747;54.966;73.394;2022-11-24T11:39:08;0.00;0.00;0.00
65680;PMS5003;61747;54.966;73.394;2022-11-24T11:41:57;1.00;0.00;0.00
65680;PMS5003;61747;54.966;73.394;2022-11-24T11:44:45;1.00;0.00;0.00
65680;PMS5003;61747;54.966;73.394;2022-11-24T11:47:16;0.00;0.00;0.00
65680;PMS5003;61747;54.966;73.394;2022-11-24T11:49:43;0.00;0.00;0.00
65680;PMS5003;61747;54.966;73.394;2022-11-24T11:52:14;0.00;0.00;0.00
65680;PMS5003;61747;54.966;73.394;2022-11-24T11:57:40;0.00;0.00;0.00
65680;PMS5003;61747;54.966;73.394;2022-11-24T12:00:19;0.00;0.00;0.00
65680;PMS5003;61747;54.966;73.394;2022-11-24T12:15:53;0.00;0.00;0.00
65680;PMS5003;61747;54.966;73.394;2022-11-24T12:23:27;0.00;0.00;0.00
65680;PMS5003;61747;54.966;73.394;2022-11-24T12:39:53;0.00;0.00;0.00
65680;PMS5003;61747;54.966;73.394;2022-11-24T12:45:03;0.00;0.00;0.00
65680;PMS5003;61747;54.966;73.394;2022-11-24T12:50:36;0.00;0.00;0.00
65680;PMS5003;61747;54.966;73.394;2022-11-24T12:53:44;0.00;0.00;0.00
65680;PMS5003;61747;54.966;73.394;2022-11-24T12:56:04;0.00;0.00;0.00
65680;PMS5003;61747;54.966;73.394;2022-11-24T12:58:41;0.00;0.00;0.00
65680;PMS5003;61747;54.966;73.394;2022-11-24T13:06:24;0.00;0.00;0.00
65680;PMS5003;61747;54.966;73.394;2022-11-24T13:08:52;0.00;0.00;0.00
65680;PMS5003;61747;54.966;73.394;2022-11-24T13:16:46;0.00;0.00;0.00
65680;PMS5003;61747;54.966;73.394;2022-11-24T13:19:23;0.00;0.00;0.00
65680;PMS5003;61747;54.966;73.394;2022-11-24T13:39:56;0.00;0.00;0.00
65680;PMS5003;61747;54.966;73.394;2022-11-24T13:42:23;0.00;0.00;0.00
65680;PMS5003;61747;54.966;73.394;2022-11-24T13:44:56;0.00;0.00;0.00
65680;PMS5003;61747;54.966;73.394;2022-11-24T13:47:31;0.00;0.00;0.00
65680;PMS5003;61747;54.966;73.394;2022-11-24T13:49:57;0.00;0.00;0.00
65680;PMS5003;61747;54.966;73.394;2022-11-24T13:57:44;0.00;0.00;0.00
65680;PMS5003;61747;54.966;73.394;2022-11-24T14:00:28;0.00;0.00;0.00
65680;PMS5003;61747;54.966;73.394;2022-11-24T14:05:48;0.00;0.00;0.00
65680;PMS5003;61747;54.966;73.394;2022-11-24T14:08:24;0.00;0.00;0.00
65680;PMS5003;61747;54.966;73.394;2022-11-24T14:10:56;0.00;0.00;0.00
65680;PMS5003;61747;54.966;73.394;2022-11-24T14:16:04;0.00;0.00;0.00
65680;PMS5003;61747;54.966;73.394;2022-11-24T14:18:34;0.00;0.00;0.00
65680;PMS5003;61747;54.966;73.394;2022-11-24T14:21:13;0.00;0.00;0.00
65680;PMS5003;61747;54.966;73.394;2022-11-24T14:23:46;0.00;0.00;0.00
65680;PMS5003;61747;54.966;73.394;2022-11-24T14:26:27;0.00;0.00;0.00
65680;PMS5003;61747;54.966;73.394;2022-11-24T14:29:05;0.00;0.00;0.00
65680;PMS5003;61747;54.966;73.394;2022-11-24T14:31:42;0.00;0.00;0.00
65680;PMS5003;61747;54.966;73.394;2022-11-24T14:34:16;0.00;0.00;0.00
65680;PMS5003;61747;54.966;73.394;2022-11-24T14:36:45;0.00;0.00;0.00
65680;PMS5003;61747;54.966;73.394;2022-11-24T14:39:12;0.00;0.00;0.00
65680;PMS5003;61747;54.966;73.394;2022-11-24T14:41:38;0.00;0.00;0.00
65680;PMS5003;61747;54.966;73.394;2022-11-24T14:44:19;0.00;0.00;0.00
65680;PMS5003;61747;54.966;73.394;2022-11-24T14:46:45;0.00;0.00;0.00
65680;PMS5003;61747;54.966;73.394;2022-11-24T14:49:17;0.00;0.00;0.00
65680;PMS5003;61747;54.966;73.394;2022-11-24T14:51:43;0.00;0.00;0.00
65680;PMS5003;61747;54.966;73.394;2022-11-24T14:54:15;0.00;0.00;0.00
65680;PMS5003;61747;54.966;73.394;2022-11-24T14:56:54;0.00;0.00;0.00
65680;PMS5003;61747;54.966;73.394;2022-11-24T14:59:22;0.00;0.00;0.00
65680;PMS5003;61747;54.966;73.394;2022-11-24T15:01:48;0.00;0.00;0.00
65680;PMS5003;61747;54.966;73.394;2022-11-24T15:04:21;0.00;0.00;0.00
65680;PMS5003;61747;54.966;73.394;2022-11-24T15:09:48;0.00;0.00;0.00
65680;PMS5003;61747;54.966;73.394;2022-11-24T15:15:03;0.00;0.00;0.00
65680;PMS5003;61747;54.966;73.394;2022-11-24T15:17:29;0.00;0.00;0.00
65680;PMS5003;61747;54.966;73.394;2022-11-24T15:20:02;1.00;0.00;0.00
65680;PMS5003;61747;54.966;73.394;2022-11-24T15:22:38;0.00;0.00;0.00
65680;PMS5003;61747;54.966;73.394;2022-11-24T15:27:59;0.00;0.00;0.00
65680;PMS5003;61747;54.966;73.394;2022-11-24T15:30:25;0.00;0.00;0.00
65680;PMS5003;61747;54.966;73.394;2022-11-24T15:32:57;0.00;0.00;0.00
65680;PMS5003;61747;54.966;73.394;2022-11-24T15:35:29;0.00;0.00;0.00
65680;PMS5003;61747;54.966;73.394;2022-11-24T15:37:56;0.00;0.00;0.00
65680;PMS5003;61747;54.966;73.394;2022-11-24T15:40:21;0.00;0.00;0.00
65680;PMS5003;61747;54.966;73.394;2022-11-24T15:42:51;0.00;0.00;0.00
65680;PMS5003;61747;54.966;73.394;2022-11-24T15:45:18;0.00;0.00;0.00
65680;PMS5003;61747;54.966;73.394;2022-11-24T15:47:44;0.00;0.00;0.00
65680;PMS5003;61747;54.966;73.394;2022-11-24T15:50:20;0.00;0.00;0.00
65680;PMS5003;61747;54.966;73.394;2022-11-24T15:52:56;0.00;0.00;0.00
65680;PMS5003;61747;54.966;73.394;2022-11-24T15:55:27;0.00;0.00;0.00
65680;PMS5003;61747;54.966;73.394;2022-11-24T15:57:55;0.00;0.00;0.00
65680;PMS5003;61747;54.966;73.394;2022-11-24T16:00:21;0.00;0.00;0.00
65680;PMS5003;61747;54.966;73.394;2022-11-24T16:02:48;0.00;0.00;0.00
65680;PMS5003;61747;54.966;73.394;2022-11-24T16:05:14;0.00;0.00;0.00
65680;PMS5003;61747;54.966;73.394;2022-11-24T16:07:51;0.00;0.00;0.00
65680;PMS5003;61747;54.966;73.394;2022-11-24T16:10:23;0.00;0.00;0.00
65680;PMS5003;61747;54.966;73.394;2022-11-24T16:12:50;0.00;0.00;0.00
65680;PMS5003;61747;54.966;73.394;2022-11-24T16:15:20;0.00;0.00;0.00
65680;PMS5003;61747;54.966;73.394;2022-11-24T16:17:46;0.00;0.00;0.00
65680;PMS5003;61747;54.966;73.394;2022-11-24T16:20:12;0.00;0.00;0.00
65680;PMS5003;61747;54.966;73.394;2022-11-24T16:22:48;0.00;0.00;0.00
65680;PMS5003;61747;54.966;73.394;2022-11-24T16:25:14;0.00;0.00;0.00
65680;PMS5003;61747;54.966;73.394;2022-11-24T16:27:40;0.00;0.00;0.00
65680;PMS5003;61747;54.966;73.394;2022-11-24T16:30:15;0.00;0.00;0.00
65680;PMS5003;61747;54.966;73.394;2022-11-24T16:32:46;1.00;1.00;0.00
65680;PMS5003;61747;54.966;73.394;2022-11-24T16:35:12;0.00;0.00;0.00
65680;PMS5003;61747;54.966;73.394;2022-11-24T16:37:38;0.00;0.00;0.00
65680;PMS5003;61747;54.966;73.394;2022-11-24T16:40:04;1.00;0.25;0.00
65680;PMS5003;61747;54.966;73.394;2022-11-24T16:42:30;0.00;0.00;0.00
65680;PMS5003;61747;54.966;73.394;2022-11-24T16:45:00;0.00;0.00;0.00
65680;PMS5003;61747;54.966;73.394;2022-11-24T16:47:31;1.00;0.00;0.00
65680;PMS5003;61747;54.966;73.394;2022-11-24T16:50:03;0.00;0.00;0.00
65680;PMS5003;61747;54.966;73.394;2022-11-24T16:52:36;0.00;0.00;0.00